createdAt,value
2023-03-13T00:04:47.865Z,1019
2023-03-13T00:10:34.127Z,1018.9
2023-03-13T00:16:01.354Z,1019
2023-03-13T00:21:39.439Z,1018.9
2023-03-13T00:27:01.356Z,1018.9
2023-03-13T00:32:22.323Z,1018.9
2023-03-13T00:38:02.244Z,1019
2023-03-13T00:43:35.320Z,1018.9
2023-03-13T00:49:05.547Z,1018.9
2023-03-13T00:54:50.101Z,1018.8
2023-03-13T01:00:19.714Z,1018.9
2023-03-13T01:06:03.337Z,1018.9
2023-03-13T01:11:40.229Z,1019
2023-03-13T01:16:54.364Z,1018.9
2023-03-13T01:22:45.068Z,1018.8
2023-03-13T01:28:05.767Z,1018.8
2023-03-13T01:33:33.084Z,1018.7
2023-03-13T01:39:04.681Z,1018.7
2023-03-13T01:44:41.061Z,1018.6
2023-03-13T01:50:07.632Z,1018.5
2023-03-13T01:55:55.187Z,1018.3
2023-03-13T02:01:22.458Z,1018
2023-03-13T02:06:57.648Z,1018.1
2023-03-13T02:12:41.794Z,1018
2023-03-13T02:18:03.160Z,1017.9
2023-03-13T02:23:46.954Z,1017.6
2023-03-13T02:29:07.625Z,1017.4
2023-03-13T02:35:03.210Z,1017.2
2023-03-13T02:40:22.683Z,1017.1
2023-03-13T02:45:54.516Z,1016.9
2023-03-13T02:51:23.961Z,1016.8
2023-03-13T02:57:20.268Z,1016.9
2023-03-13T03:02:40.535Z,1016.9
2023-03-13T03:08:12.731Z,1016.9
2023-03-13T03:13:37.718Z,1016.9
2023-03-13T03:24:53.827Z,1016.5
2023-03-13T03:30:45.670Z,1016.5
2023-03-13T03:36:09.463Z,1016.5
2023-03-13T03:41:39.369Z,1016.5
2023-03-13T03:47:25.941Z,1016.4
2023-03-13T03:52:50.032Z,1016.5
2023-03-13T03:58:26.766Z,1016.4
2023-03-13T04:03:55.988Z,1016.4
2023-03-13T04:09:45.598Z,1016.3
2023-03-13T04:15:13.259Z,1016.3
2023-03-13T04:20:43.677Z,1016.4
2023-03-13T04:26:25.817Z,1016.4
2023-03-13T04:32:02.941Z,1016.6
2023-03-13T04:37:14.814Z,1016.6
2023-03-13T04:42:49.871Z,1016.5
2023-03-13T04:48:44.572Z,1016.6
2023-03-13T04:54:00.521Z,1016.5
2023-03-13T04:59:37.588Z,1016.4
2023-03-13T05:05:29.070Z,1016.3
2023-03-13T05:10:55.311Z,1016.3
2023-03-13T05:16:12.830Z,1016.2
2023-03-13T05:21:47.661Z,1016.2
2023-03-13T05:27:34.302Z,1016
2023-03-13T05:33:14.398Z,1015.9
2023-03-13T05:38:33.039Z,1015.8
2023-03-13T05:44:09.428Z,1015.9
2023-03-13T05:49:41.137Z,1015.8
2023-03-13T05:55:13.669Z,1015.8
2023-03-13T06:01:00.260Z,1015.8
2023-03-13T06:06:44.358Z,1015.6
2023-03-13T06:12:08.649Z,1015.5
2023-03-13T06:17:40.128Z,1015.7
2023-03-13T06:23:07.403Z,1015.6
2023-03-13T06:28:55.437Z,1015.5
2023-03-13T06:34:24.135Z,1015.7
2023-03-13T06:40:04.892Z,1015.3
2023-03-13T06:45:39.424Z,1015.1
2023-03-13T06:51:01.953Z,1015.2
2023-03-13T06:56:46.078Z,1015.1
2023-03-13T07:02:32.601Z,1015.4
2023-03-13T07:08:00.769Z,1015.2
2023-03-13T07:13:33.602Z,1015.4
2023-03-13T07:18:59.253Z,1015.3
2023-03-13T07:24:40.132Z,1015.1
2023-03-13T07:30:26.337Z,1015
2023-03-13T07:35:41.139Z,1015.2
2023-03-13T07:41:34.065Z,1015.3
2023-03-13T07:47:07.762Z,1015.1
2023-03-13T07:52:32.901Z,1014.9
2023-03-13T07:57:52.138Z,1014.7
2023-03-13T08:03:32.598Z,1014.6
2023-03-13T08:09:12.544Z,1014.4
2023-03-13T08:14:39.577Z,1014.4
2023-03-13T08:20:15.323Z,1014.4
2023-03-13T08:25:57.125Z,1014.4
2023-03-13T08:31:29.342Z,1014.4
2023-03-13T08:36:59.411Z,1014.3
2023-03-13T08:42:42.658Z,1014.1
2023-03-13T08:48:32.929Z,1013.9
2023-03-13T08:53:54.857Z,1013.8
2023-03-13T08:59:37.710Z,1013.7
2023-03-13T09:05:13.937Z,1013.7
2023-03-13T09:10:23.442Z,1013.2
2023-03-13T09:16:07.587Z,1013
2023-03-13T09:21:39.248Z,1012.8
2023-03-13T09:27:34.013Z,1012.6
2023-03-13T09:32:51.058Z,1012.7
2023-03-13T09:38:39.620Z,1012.9
2023-03-13T09:44:16.532Z,1012.6
2023-03-13T09:49:56.299Z,1012.4
2023-03-13T09:55:08.155Z,1012.5
2023-03-13T10:01:06.541Z,1012.4
2023-03-13T10:06:23.115Z,1012.1
2023-03-13T10:11:58.095Z,1011.7
2023-03-13T10:17:34.212Z,1011.6
2023-03-13T10:23:10.780Z,1011.5
2023-03-13T10:29:11.074Z,1011.3
2023-03-13T10:34:33.889Z,1011.2
2023-03-13T10:40:05.804Z,1011.1
2023-03-13T10:45:59.194Z,1011.1
2023-03-13T10:51:19.278Z,1010.8
2023-03-13T10:57:04.244Z,1010.9
2023-03-13T11:02:27.736Z,1010.5
2023-03-13T11:08:15.432Z,1010.4
2023-03-13T11:14:03.785Z,1010.2
2023-03-13T11:19:36.253Z,1010.1
2023-03-13T11:25:06.213Z,1010
2023-03-13T11:30:52.574Z,1010
2023-03-13T11:36:27.241Z,1009.8
2023-03-13T11:41:57.931Z,1009.6
2023-03-13T11:47:23.386Z,1009.4
2023-03-13T11:53:12.287Z,1009.3
2023-03-13T11:58:34.247Z,1009
2023-03-13T12:04:22.161Z,1008.9
2023-03-13T12:10:01.802Z,1008.7
2023-03-13T12:15:49.680Z,1008.5
2023-03-13T12:21:09.050Z,1008.3
2023-03-13T12:26:38.976Z,1008
2023-03-13T12:32:15.529Z,1007.7
2023-03-13T12:38:15.403Z,1007.6
2023-03-13T12:43:41.796Z,1007.5
2023-03-13T12:49:32.325Z,1007.2
2023-03-13T12:54:57.698Z,1007.1
2023-03-13T13:00:40.286Z,1006.8
2023-03-13T13:06:26.082Z,1006.7
2023-03-13T13:11:46.136Z,1006.5
2023-03-13T13:17:22.093Z,1006.4
2023-03-13T13:22:55.361Z,1006.3
2023-03-13T13:28:41.476Z,1006
2023-03-13T13:34:24.764Z,1005.7
2023-03-13T13:40:09.692Z,1005.7
2023-03-13T13:45:31.806Z,1005.4
2023-03-13T13:51:26.568Z,1005.4
2023-03-13T13:56:45.866Z,1005.4
2023-03-13T14:02:40.147Z,1005.2
2023-03-13T14:08:12.874Z,1005.2
2023-03-13T14:13:32.154Z,1004.8
2023-03-13T14:19:26.155Z,1004.8
2023-03-13T14:24:47.818Z,1004.7
2023-03-13T14:30:40.909Z,1004.7
2023-03-13T14:36:02.044Z,1004.6
2023-03-13T14:41:47.384Z,1004.2
2023-03-13T14:47:19.189Z,1004.3
2023-03-13T14:53:15.796Z,1004.2
2023-03-13T14:58:27.393Z,1004.1
2023-03-13T15:04:08.976Z,1003.8
2023-03-13T15:10:02.508Z,1003.7
2023-03-13T15:15:32.208Z,1003.3
2023-03-13T15:20:57.393Z,1003.1
2023-03-13T15:26:49.406Z,1003
2023-03-13T15:32:28.063Z,1002.9
2023-03-13T15:37:56.074Z,1002.4
2023-03-13T15:43:29.205Z,1002.2
2023-03-13T15:49:14.002Z,1001.9
2023-03-13T15:55:00.030Z,1001.8
2023-03-13T16:00:38.559Z,1001.5
2023-03-13T16:05:58.442Z,1001.6
2023-03-13T16:11:38.006Z,1001.4
2023-03-13T16:17:27.015Z,1001.2
2023-03-13T16:22:57.950Z,1001
2023-03-13T16:28:14.837Z,1000.9
2023-03-13T16:34:14.368Z,1000.8
2023-03-13T16:39:25.149Z,1000.9
2023-03-13T16:45:04.529Z,1000.9
2023-03-13T16:50:46.598Z,1001
2023-03-13T16:56:19.823Z,1000.8
2023-03-13T17:01:58.087Z,1000.8
2023-03-13T17:07:30.828Z,1000.8
2023-03-13T17:13:02.186Z,1000.7
2023-03-13T17:18:42.147Z,1000.9
2023-03-13T17:24:13.263Z,1000.7
2023-03-13T17:29:50.107Z,1000.7
2023-03-13T17:35:41.915Z,1000.8
2023-03-13T17:41:14.898Z,1000.6
2023-03-13T17:46:31.885Z,1000.4
2023-03-13T17:52:00.785Z,1001
2023-03-13T17:57:33.143Z,1001.2
2023-03-13T18:03:17.938Z,1000.9
2023-03-13T18:08:57.369Z,1001.1
2023-03-13T18:14:28.568Z,1001.2
2023-03-13T18:19:59.374Z,1001.6
2023-03-13T18:25:46.901Z,1001.3
2023-03-13T18:31:15.772Z,1001.4
2023-03-13T18:36:40.561Z,1001.3
2023-03-13T18:42:17.868Z,1001.3
2023-03-13T18:47:57.975Z,1001.2
2023-03-13T18:53:42.897Z,1001.4
2023-03-13T18:59:06.763Z,1001.4
2023-03-13T19:04:36.359Z,1001.4
2023-03-13T19:10:26.040Z,1001.1
2023-03-13T19:15:39.905Z,1000.9
2023-03-13T19:21:39.942Z,1001.4
2023-03-13T19:32:28.938Z,1002.2
2023-03-13T19:38:26.195Z,1002.1
2023-03-13T19:43:57.243Z,1002.6
2023-03-13T19:49:25.536Z,1002.5
2023-03-13T19:55:05.331Z,1002.5
2023-03-13T20:00:34.924Z,1002.9
2023-03-13T20:06:10.677Z,1002.6
2023-03-13T20:11:34.394Z,1002.3
2023-03-13T20:17:19.621Z,1001.5
2023-03-13T20:23:04.546Z,1001.2
2023-03-13T20:28:33.500Z,1000.8
2023-03-13T20:33:48.916Z,1000.8
2023-03-13T20:39:52.276Z,1000.9
2023-03-13T20:45:27.347Z,1000.8
2023-03-13T20:50:58.008Z,1000.9
2023-03-13T20:56:32.541Z,1001.3
2023-03-13T21:02:02.415Z,1002.2
2023-03-13T21:07:34.945Z,1003
2023-03-13T21:13:10.168Z,1003.5
2023-03-13T21:18:32.786Z,1004.4
2023-03-13T21:24:09.358Z,1004.5
2023-03-13T21:29:41.584Z,1004.8
2023-03-13T21:35:31.937Z,1005.2
2023-03-13T21:40:47.340Z,1005.6
2023-03-13T21:46:30.526Z,1005.8
2023-03-13T21:52:19.290Z,1006.5
2023-03-13T21:57:56.026Z,1006.6
2023-03-13T22:03:30.311Z,1006.9
2023-03-13T22:09:03.484Z,1007.4
2023-03-13T22:14:33.509Z,1007.5
2023-03-13T22:19:57.315Z,1007.7
2023-03-13T22:25:29.258Z,1007.9
2023-03-13T22:31:22.643Z,1008
2023-03-13T22:36:50.684Z,1008.5
2023-03-13T22:42:21.102Z,1008.8
2023-03-13T22:47:45.435Z,1008.8
2023-03-13T22:53:34.484Z,1008.8
2023-03-13T22:59:09.948Z,1008.4
2023-03-13T23:04:28.340Z,1008.6
2023-03-13T23:09:57.961Z,1008.8
2023-03-13T23:15:54.629Z,1008.7
2023-03-13T23:21:25.298Z,1008.6
2023-03-13T23:27:02.049Z,1008.5
2023-03-13T23:32:42.652Z,1008.5
2023-03-13T23:37:55.068Z,1008.5
2023-03-13T23:43:41.463Z,1008.9
2023-03-13T23:49:08.776Z,1008.8
2023-03-13T23:54:41.492Z,1008.8
